Accueil
METAR-TAF:

METAR-TAF

Aéroports :

Newport, Vermont, États-Unis

latitude: 44-53-20N, longitude: 072-13-45W, altitude: 283 m

Observation

Le bulletin a été fait il y a 11 minutes, à 02:15 UTC
Vent 3 kt de nord
Température -6°C
Humidité 73%
Pression 1039 hPa
Visibilité: 16.1 km
Ciel clair

METAR: KEFK 230215Z AUTO 35003KT 10SM CLR M06/M10 A3068 RMK AO2 T10601102

Heure: 21:26 (02:26 UTC)


TAF: absent

Observations et prévisions météorologiques de plus de 4000 aéroports (messages METAR et TAF).

Les stations disponibles sont représentées par des disques jaunes et rouges sur la carte.

Passer la souris dessus pour voir le nom de la station.

Cliquer dessus pour voir les observations et prévisions météorologiques.

Pour changer de carte: cliquez sur les boutons verts avec une croix noire pour zoomer, sur le bouton vert avec un tiret pour effectuer un zoom arrière, ou sur les flèches vertes pour les cartes adjacentes.


METAR-TAF: